createdAt,value
2022-07-25T00:00:27.946Z,60.51
2022-07-25T00:02:55.895Z,60.54
2022-07-25T00:05:25.736Z,60.67
2022-07-25T00:07:53.679Z,60.79
2022-07-25T00:10:21.897Z,61.13
2022-07-25T00:12:50.069Z,60.92
2022-07-25T00:15:18.219Z,60.90
2022-07-25T00:17:46.396Z,60.77
2022-07-25T00:20:14.634Z,60.75
2022-07-25T00:22:44.066Z,60.85
2022-07-25T00:25:12.391Z,60.82
2022-07-25T00:27:40.422Z,60.78
2022-07-25T00:30:09.555Z,61.05
2022-07-25T00:32:37.661Z,60.78
2022-07-25T00:35:06.521Z,60.80
2022-07-25T00:37:34.529Z,60.54
2022-07-25T00:40:04.012Z,60.61
2022-07-25T00:42:32.082Z,60.77
2022-07-25T00:45:00.344Z,60.61
2022-07-25T00:47:28.307Z,60.54
2022-07-25T00:49:56.330Z,60.44
2022-07-25T00:52:24.766Z,60.40
2022-07-25T00:54:52.876Z,60.05
2022-07-25T00:57:22.180Z,60.05
2022-07-25T00:59:50.240Z,60.15
2022-07-25T01:02:18.384Z,60.01
2022-07-25T01:04:46.355Z,59.79
2022-07-25T01:07:15.044Z,59.76
2022-07-25T01:09:43.465Z,59.66
2022-07-25T01:12:11.507Z,59.20
2022-07-25T01:14:40.970Z,58.09
2022-07-25T01:17:08.887Z,57.54
2022-07-25T01:19:36.848Z,57.06
2022-07-25T01:22:06.709Z,56.28
2022-07-25T01:24:35.759Z,55.98
2022-07-25T01:27:03.943Z,55.54
2022-07-25T01:29:31.947Z,55.23
2022-07-25T01:32:00.016Z,55.00
2022-07-25T01:34:28.044Z,54.56
2022-07-25T01:36:55.966Z,54.55
2022-07-25T01:39:25.359Z,54.60
2022-07-25T01:41:53.329Z,54.32
2022-07-25T01:44:21.298Z,54.18
2022-07-25T01:46:49.487Z,54.20
2022-07-25T01:49:17.651Z,53.98
2022-07-25T01:51:45.707Z,54.02
2022-07-25T01:54:14.595Z,53.76
2022-07-25T01:56:46.950Z,53.75
2022-07-25T01:59:16.999Z,53.95
2022-07-25T02:01:45.279Z,53.84
2022-07-25T02:04:13.361Z,53.82
2022-07-25T02:06:41.988Z,54.01
2022-07-25T02:09:10.194Z,53.79
2022-07-25T02:11:38.183Z,53.99
2022-07-25T02:14:08.101Z,54.17
2022-07-25T02:16:36.401Z,54.22
2022-07-25T02:19:04.793Z,54.27
2022-07-25T02:21:32.951Z,54.10
2022-07-25T02:24:00.963Z,54.29
2022-07-25T02:26:28.894Z,53.98
2022-07-25T02:28:56.870Z,54.21
2022-07-25T02:31:26.443Z,53.93
2022-07-25T02:33:54.464Z,54.16
2022-07-25T02:36:22.687Z,54.08
2022-07-25T02:38:50.721Z,54.31
2022-07-25T02:41:18.803Z,53.98
2022-07-25T02:43:46.852Z,54.30
2022-07-25T02:46:15.035Z,54.35
2022-07-25T02:48:44.694Z,54.27
2022-07-25T02:51:13.038Z,54.77
2022-07-25T02:53:56.611Z,55.12
2022-07-25T02:56:26.288Z,55.14
2022-07-25T02:58:58.008Z,55.43
2022-07-25T03:01:26.074Z,55.50
2022-07-25T03:03:55.576Z,55.51
2022-07-25T03:06:23.574Z,55.95
2022-07-25T03:08:51.499Z,55.83
2022-07-25T03:11:19.725Z,56.21
2022-07-25T03:13:47.706Z,56.48
2022-07-25T03:16:15.824Z,56.04
2022-07-25T03:18:43.815Z,55.76
2022-07-25T03:21:13.181Z,55.93
2022-07-25T03:23:41.119Z,55.73
2022-07-25T03:28:36.901Z,55.38
2022-07-25T03:31:04.852Z,55.45
2022-07-25T03:33:32.964Z,55.31
2022-07-25T03:36:00.799Z,55.40
2022-07-25T03:38:30.436Z,55.46
2022-07-25T03:40:58.256Z,55.29
2022-07-25T03:43:26.109Z,55.30
2022-07-25T03:48:21.721Z,55.04
2022-07-25T03:50:49.561Z,54.79
2022-07-25T03:53:17.437Z,54.74
2022-07-25T03:55:46.704Z,54.35
2022-07-25T03:58:14.562Z,54.44
2022-07-25T04:00:42.526Z,54.29
2022-07-25T04:03:10.451Z,54.19
2022-07-25T04:05:38.300Z,53.81
2022-07-25T04:08:06.362Z,54.23
2022-07-25T04:10:34.464Z,53.91
2022-07-25T04:13:03.885Z,53.92
2022-07-25T04:15:31.838Z,53.74
2022-07-25T04:18:01.140Z,53.76
2022-07-25T04:20:30.039Z,53.44
2022-07-25T04:22:57.972Z,53.51
2022-07-25T04:25:25.763Z,53.56
2022-07-25T04:27:53.678Z,53.34
2022-07-25T04:30:24.194Z,53.11
2022-07-25T04:32:52.688Z,52.89
2022-07-25T04:35:20.599Z,52.70
2022-07-25T04:37:48.447Z,52.47
2022-07-25T04:40:16.597Z,52.56
2022-07-25T04:42:44.506Z,52.79
2022-07-25T04:45:12.858Z,52.87
2022-07-25T04:47:44.994Z,52.74
2022-07-25T04:50:12.928Z,52.65
2022-07-25T04:52:40.898Z,52.71
2022-07-25T04:55:09.593Z,52.76
2022-07-25T04:57:38.268Z,52.46
2022-07-25T05:00:08.841Z,52.19
2022-07-25T05:02:37.316Z,52.21
2022-07-25T05:05:08.523Z,52.24
2022-07-25T05:07:49.081Z,52.17
2022-07-25T05:10:16.863Z,52.01
2022-07-25T05:12:44.634Z,51.95
2022-07-25T05:15:13.387Z,51.90
2022-07-25T05:17:41.248Z,51.83
2022-07-25T05:20:12.192Z,51.28
2022-07-25T05:22:40.017Z,51.25
2022-07-25T05:25:09.396Z,51.18
2022-07-25T05:27:37.277Z,50.43
2022-07-25T05:30:06.977Z,50.28
2022-07-25T05:32:34.940Z,50.45
2022-07-25T05:35:02.784Z,50.21
2022-07-25T05:37:31.990Z,50.33
2022-07-25T05:39:59.728Z,50.40
2022-07-25T05:42:27.896Z,50.46
2022-07-25T05:44:55.670Z,50.55
2022-07-25T05:47:23.543Z,50.34
2022-07-25T05:49:51.306Z,50.59
2022-07-25T05:52:19.140Z,50.65
2022-07-25T05:54:48.336Z,50.65
2022-07-25T05:57:16.121Z,50.74
2022-07-25T05:59:43.939Z,50.51
2022-07-25T06:02:11.923Z,50.61
2022-07-25T06:04:39.860Z,50.44
2022-07-25T06:07:07.653Z,50.38
2022-07-25T06:09:36.310Z,50.17
2022-07-25T06:12:06.493Z,50.13
2022-07-25T06:14:36.176Z,49.86
2022-07-25T06:17:04.006Z,49.86
2022-07-25T06:19:31.801Z,49.73
2022-07-25T06:21:59.596Z,49.40
2022-07-25T06:24:27.424Z,48.80
2022-07-25T06:26:55.165Z,49.35
2022-07-25T06:29:24.312Z,49.28
2022-07-25T06:31:52.148Z,49.14
2022-07-25T06:34:20.011Z,49.02
2022-07-25T06:36:47.855Z,48.69
2022-07-25T06:39:15.705Z,48.70
2022-07-25T06:41:43.501Z,48.88
2022-07-25T06:44:11.247Z,48.75
2022-07-25T06:46:40.659Z,48.74
2022-07-25T06:49:08.588Z,48.72
2022-07-25T06:51:36.412Z,48.42
2022-07-25T06:54:04.881Z,48.54
2022-07-25T06:56:33.045Z,48.89
2022-07-25T06:59:01.607Z,48.24
2022-07-25T07:01:30.290Z,48.12
2022-07-25T07:03:59.619Z,48.26
2022-07-25T07:06:27.417Z,47.48
2022-07-25T07:08:56.139Z,47.10
2022-07-25T07:11:24.122Z,46.76
2022-07-25T07:13:51.946Z,46.71
2022-07-25T07:16:19.846Z,46.40
2022-07-25T07:18:49.460Z,46.50
2022-07-25T07:21:21.441Z,46.17
2022-07-25T07:23:49.403Z,46.43
2022-07-25T07:26:21.476Z,45.65
2022-07-25T07:28:49.280Z,45.54
2022-07-25T07:31:18.402Z,45.03
2022-07-25T07:33:46.728Z,45.43
2022-07-25T07:36:14.875Z,45.15
2022-07-25T07:38:44.577Z,45.07
2022-07-25T07:41:12.773Z,44.97
2022-07-25T07:43:40.597Z,44.28
2022-07-25T07:46:09.056Z,44.23
2022-07-25T07:48:37.301Z,44.47
2022-07-25T07:51:06.001Z,44.38
2022-07-25T07:53:51.253Z,44.58
2022-07-25T07:56:20.587Z,44.22
2022-07-25T07:58:48.567Z,43.99
2022-07-25T08:01:16.420Z,44.42
2022-07-25T08:03:44.301Z,44.46
2022-07-25T08:06:12.346Z,44.43
2022-07-25T08:08:40.211Z,44.15
2022-07-25T08:11:08.244Z,44.67
2022-07-25T08:13:38.169Z,44.14
2022-07-25T08:16:07.321Z,44.41
2022-07-25T08:18:35.250Z,44.92
2022-07-25T08:21:06.084Z,44.43
2022-07-25T08:23:35.448Z,43.99
2022-07-25T08:26:04.062Z,44.43
2022-07-25T08:28:31.907Z,44.61
2022-07-25T08:31:01.667Z,43.83
2022-07-25T08:33:29.619Z,44.55
2022-07-25T08:35:58.738Z,44.46
2022-07-25T08:38:30.600Z,44.28
2022-07-25T08:40:59.744Z,44.01
2022-07-25T08:43:29.282Z,44.12
2022-07-25T08:45:57.158Z,44.08
2022-07-25T08:48:27.750Z,44.10
2022-07-25T08:50:57.493Z,44.68
2022-07-25T08:53:35.088Z,44.38
2022-07-25T08:56:11.164Z,44.10
2022-07-25T08:58:43.971Z,44.62
2022-07-25T09:01:12.551Z,44.50
2022-07-25T09:03:43.181Z,44.36
2022-07-25T09:06:19.953Z,44.69
2022-07-25T09:08:55.722Z,44.32
2022-07-25T09:11:32.345Z,43.90
2022-07-25T09:14:02.086Z,43.27
2022-07-25T09:16:31.625Z,43.61
2022-07-25T09:19:12.655Z,43.05
2022-07-25T09:21:42.192Z,43.00
2022-07-25T09:24:12.871Z,43.17
2022-07-25T09:26:49.872Z,43.09
2022-07-25T09:29:19.598Z,42.90
2022-07-25T09:31:48.018Z,42.73
2022-07-25T09:34:31.054Z,43.10
2022-07-25T09:36:59.396Z,42.91
2022-07-25T09:39:34.932Z,42.03
2022-07-25T09:42:03.147Z,41.81
2022-07-25T09:44:31.312Z,42.86
2022-07-25T09:46:59.854Z,42.57
2022-07-25T09:49:40.277Z,41.86
2022-07-25T09:52:08.473Z,42.51
2022-07-25T09:54:36.641Z,42.23
2022-07-25T09:57:04.660Z,41.49
2022-07-25T09:59:34.387Z,41.55
2022-07-25T10:02:07.997Z,41.77
2022-07-25T10:04:45.819Z,41.78
2022-07-25T10:07:16.716Z,41.82
2022-07-25T10:09:46.737Z,41.54
2022-07-25T10:12:19.347Z,41.34
2022-07-25T10:15:06.906Z,41.10
2022-07-25T10:17:35.255Z,41.22
2022-07-25T10:20:06.569Z,40.35
2022-07-25T10:22:55.811Z,40.37
2022-07-25T10:25:24.763Z,40.17
2022-07-25T10:28:00.048Z,39.63
2022-07-25T10:30:30.167Z,40.44
2022-07-25T10:33:00.618Z,39.05
2022-07-25T10:35:30.257Z,39.26
2022-07-25T10:37:59.759Z,38.87
2022-07-25T10:40:34.770Z,37.98
2022-07-25T10:43:13.352Z,38.04
2022-07-25T10:45:50.391Z,37.82
2022-07-25T10:48:23.442Z,37.74
2022-07-25T10:50:58.094Z,38.13
2022-07-25T10:53:31.820Z,38.17
2022-07-25T10:56:06.188Z,38.20
2022-07-25T10:58:48.861Z,37.88
2022-07-25T11:01:21.626Z,38.00
2022-07-25T11:03:50.387Z,37.76
2022-07-25T11:06:32.222Z,37.90
2022-07-25T11:09:01.219Z,38.37
2022-07-25T11:11:40.453Z,38.84
2022-07-25T11:14:16.608Z,38.88
2022-07-25T11:16:44.910Z,38.85
2022-07-25T11:19:24.380Z,38.58
2022-07-25T11:21:55.778Z,38.62
2022-07-25T11:24:34.750Z,38.25
2022-07-25T11:27:02.577Z,38.05
2022-07-25T11:29:30.481Z,38.21
2022-07-25T11:32:00.544Z,38.75
2022-07-25T11:34:30.241Z,38.62
2022-07-25T11:37:02.621Z,38.65
2022-07-25T11:39:33.559Z,38.92
2022-07-25T11:42:03.603Z,38.79
2022-07-25T11:44:33.499Z,38.87
2022-07-25T11:47:01.691Z,39.20
2022-07-25T11:49:29.589Z,39.52
2022-07-25T11:51:57.478Z,39.66
2022-07-25T11:54:26.596Z,39.46
2022-07-25T11:56:54.387Z,39.57
2022-07-25T11:59:22.339Z,39.53
2022-07-25T12:01:50.178Z,39.85
2022-07-25T12:04:20.279Z,40.80
2022-07-25T12:06:49.714Z,40.67
2022-07-25T12:09:19.603Z,40.78
2022-07-25T12:11:50.768Z,41.21
2022-07-25T12:14:18.651Z,41.08
2022-07-25T12:16:46.605Z,41.85
2022-07-25T12:19:22.650Z,41.69
2022-07-25T12:21:50.441Z,42.11
2022-07-25T12:24:18.286Z,42.90
2022-07-25T12:26:46.076Z,42.36
2022-07-25T12:29:15.235Z,43.00
2022-07-25T12:31:42.989Z,43.39
2022-07-25T12:34:10.757Z,43.24
2022-07-25T12:36:43.943Z,43.19
2022-07-25T12:39:12.357Z,43.19
2022-07-25T12:41:42.429Z,43.21
2022-07-25T12:44:10.162Z,42.96
2022-07-25T12:46:44.591Z,42.88
2022-07-25T12:49:16.898Z,42.55
2022-07-25T12:51:44.865Z,41.93
2022-07-25T12:54:12.633Z,41.58
2022-07-25T12:56:40.405Z,41.82
2022-07-25T12:59:08.553Z,42.59
2022-07-25T13:01:36.744Z,43.03
2022-07-25T13:04:07.304Z,42.51
2022-07-25T13:06:38.594Z,42.45
2022-07-25T13:09:07.759Z,42.12
2022-07-25T13:11:36.001Z,41.85
2022-07-25T13:14:03.858Z,41.99
2022-07-25T13:16:31.702Z,41.21
2022-07-25T13:18:59.551Z,40.89
2022-07-25T13:21:29.520Z,40.72
2022-07-25T13:23:57.274Z,40.87
2022-07-25T13:26:25.169Z,39.92
2022-07-25T13:28:57.911Z,39.66
2022-07-25T13:31:27.553Z,40.02
2022-07-25T13:33:55.506Z,39.50
2022-07-25T13:36:23.262Z,39.64
2022-07-25T13:38:52.343Z,40.13
2022-07-25T13:41:20.119Z,40.21
2022-07-25T13:43:48.888Z,40.20
2022-07-25T13:46:16.782Z,39.45
2022-07-25T13:48:44.749Z,39.66
2022-07-25T13:51:12.675Z,39.20
2022-07-25T13:53:40.454Z,39.67
2022-07-25T13:56:09.690Z,40.41
2022-07-25T13:58:37.541Z,40.38
2022-07-25T14:01:07.253Z,40.39
2022-07-25T14:03:36.275Z,40.26
2022-07-25T14:06:04.501Z,40.40
2022-07-25T14:08:32.609Z,40.50
2022-07-25T14:11:00.336Z,40.70
2022-07-25T14:13:29.470Z,40.35
2022-07-25T14:15:57.245Z,40.69
2022-07-25T14:18:25.017Z,40.87
2022-07-25T14:20:52.784Z,41.70
2022-07-25T14:23:20.561Z,42.55
2022-07-25T14:25:48.388Z,43.11
2022-07-25T14:28:16.156Z,43.48
2022-07-25T14:30:45.267Z,43.07
2022-07-25T14:33:14.164Z,43.66
2022-07-25T14:35:41.921Z,43.91
2022-07-25T14:38:10.103Z,44.18
2022-07-25T14:40:37.941Z,43.30
2022-07-25T14:43:05.854Z,43.07
2022-07-25T14:45:34.137Z,43.10
2022-07-25T14:48:03.406Z,43.16
2022-07-25T14:50:31.141Z,43.54
2022-07-25T14:52:58.888Z,43.94
2022-07-25T14:55:27.144Z,44.22
2022-07-25T14:57:55.204Z,43.94
2022-07-25T15:00:29.243Z,44.21
2022-07-25T15:02:57.782Z,44.17
2022-07-25T15:05:26.929Z,44.43
2022-07-25T15:07:54.640Z,44.42
2022-07-25T15:10:22.681Z,45.00
2022-07-25T15:13:02.304Z,45.18
2022-07-25T15:15:38.485Z,44.83
2022-07-25T15:18:09.463Z,44.18
2022-07-25T15:20:42.728Z,43.94
2022-07-25T15:23:10.456Z,44.32
2022-07-25T15:28:26.379Z,43.71
2022-07-25T15:30:54.207Z,43.76
2022-07-25T15:33:22.299Z,43.20
2022-07-25T15:35:51.428Z,42.37
2022-07-25T15:38:19.830Z,42.73
2022-07-25T15:40:48.206Z,42.74
2022-07-25T15:43:16.090Z,43.33
2022-07-25T15:45:45.869Z,42.86
2022-07-25T15:48:16.126Z,43.25
2022-07-25T15:50:45.776Z,43.19
2022-07-25T15:53:15.609Z,42.63
2022-07-25T15:55:43.562Z,42.50
2022-07-25T15:58:12.182Z,42.34
2022-07-25T16:00:40.919Z,41.94
2022-07-25T16:03:09.590Z,40.96
2022-07-25T16:05:39.374Z,40.80
2022-07-25T16:08:08.620Z,40.77
2022-07-25T16:10:38.483Z,40.68
2022-07-25T16:13:06.388Z,40.36
2022-07-25T16:15:34.591Z,40.47
2022-07-25T16:18:03.200Z,40.20
2022-07-25T16:20:32.379Z,40.16
2022-07-25T16:23:00.484Z,40.38
2022-07-25T16:25:29.601Z,40.38
2022-07-25T16:27:59.118Z,40.73
2022-07-25T16:30:27.251Z,41.03
2022-07-25T16:32:55.651Z,41.35
2022-07-25T16:35:23.736Z,41.70
2022-07-25T16:37:51.983Z,41.71
2022-07-25T16:40:19.747Z,42.01
2022-07-25T16:42:49.638Z,41.23
2022-07-25T16:45:18.842Z,40.97
2022-07-25T16:47:47.557Z,40.66
2022-07-25T16:50:15.331Z,40.49
2022-07-25T16:52:43.082Z,40.80
2022-07-25T16:55:11.109Z,41.13
2022-07-25T16:57:39.984Z,40.89
2022-07-25T17:00:09.788Z,41.28
2022-07-25T17:02:39.739Z,41.28
2022-07-25T17:05:08.060Z,40.80
2022-07-25T17:07:36.259Z,39.83
2022-07-25T17:10:04.932Z,39.90
2022-07-25T17:12:32.675Z,39.52
2022-07-25T17:15:00.446Z,39.51
2022-07-25T17:17:28.592Z,39.19
2022-07-25T17:20:00.078Z,39.15
2022-07-25T17:22:28.097Z,38.75
2022-07-25T17:24:55.813Z,38.81
2022-07-25T17:27:23.921Z,38.96
2022-07-25T17:29:51.802Z,38.77
2022-07-25T17:32:19.559Z,39.01
2022-07-25T17:34:47.338Z,39.58
2022-07-25T17:37:16.574Z,39.49
2022-07-25T17:39:44.372Z,39.51
2022-07-25T17:42:12.237Z,39.55
2022-07-25T17:44:40.068Z,40.00
2022-07-25T17:47:07.844Z,39.45
2022-07-25T17:49:35.701Z,39.78
2022-07-25T17:52:03.465Z,39.59
2022-07-25T17:54:32.677Z,39.21
2022-07-25T17:57:00.524Z,39.52
2022-07-25T17:59:28.239Z,38.78
2022-07-25T18:01:56.036Z,38.72
2022-07-25T18:04:24.276Z,38.36
2022-07-25T18:06:52.170Z,38.64
2022-07-25T18:09:20.372Z,38.83
2022-07-25T18:11:49.565Z,38.83
2022-07-25T18:14:17.554Z,38.50
2022-07-25T18:16:45.844Z,39.35
2022-07-25T18:19:15.955Z,39.28
2022-07-25T18:21:45.049Z,39.68
2022-07-25T18:24:13.335Z,39.30
2022-07-25T18:26:41.185Z,39.58
2022-07-25T18:29:10.667Z,39.84
2022-07-25T18:31:38.634Z,39.75
2022-07-25T18:34:06.634Z,39.92
2022-07-25T18:36:35.267Z,39.77
2022-07-25T18:39:05.277Z,39.96
2022-07-25T18:41:34.123Z,40.33
2022-07-25T18:44:01.929Z,40.61
2022-07-25T18:46:32.821Z,40.34
2022-07-25T18:49:02.080Z,40.18
2022-07-25T18:51:29.861Z,40.64
2022-07-25T18:53:57.628Z,40.53
2022-07-25T18:56:25.551Z,40.46
2022-07-25T18:58:53.303Z,40.32
2022-07-25T19:01:24.240Z,40.52
2022-07-25T19:03:53.365Z,40.55
2022-07-25T19:06:21.139Z,40.54
2022-07-25T19:08:49.090Z,40.85
2022-07-25T19:11:16.876Z,40.88
2022-07-25T19:13:49.990Z,40.80
2022-07-25T19:16:19.151Z,41.00
2022-07-25T19:18:47.207Z,41.31
2022-07-25T19:21:16.813Z,40.98
2022-07-25T19:23:50.513Z,41.21
2022-07-25T19:26:22.821Z,41.30
2022-07-25T19:28:51.360Z,41.46
2022-07-25T19:31:19.202Z,41.55
2022-07-25T19:33:47.446Z,41.26
2022-07-25T19:36:16.638Z,41.17
2022-07-25T19:38:44.389Z,41.12
2022-07-25T19:41:12.249Z,41.50
2022-07-25T19:43:40.044Z,41.22
2022-07-25T19:46:10.845Z,41.26
2022-07-25T19:48:38.793Z,41.18
2022-07-25T19:51:06.849Z,41.49
2022-07-25T19:53:36.237Z,41.49
2022-07-25T19:56:06.684Z,41.67
2022-07-25T19:58:38.682Z,41.58
2022-07-25T20:01:07.758Z,41.87
2022-07-25T20:03:36.201Z,42.00
2022-07-25T20:06:08.079Z,42.11
2022-07-25T20:08:39.290Z,42.17
2022-07-25T20:11:07.519Z,42.36
2022-07-25T20:13:35.719Z,42.54
2022-07-25T20:16:04.000Z,42.68
2022-07-25T20:18:32.098Z,42.98
2022-07-25T20:21:00.851Z,42.97
2022-07-25T20:23:28.643Z,42.94
2022-07-25T20:25:57.853Z,43.32
2022-07-25T20:28:25.655Z,43.25
2022-07-25T20:30:54.056Z,43.32
2022-07-25T20:33:23.809Z,43.64
2022-07-25T20:35:51.585Z,43.68
2022-07-25T20:38:19.377Z,44.14
2022-07-25T20:40:49.692Z,44.25
2022-07-25T20:43:19.802Z,44.40
2022-07-25T20:45:48.040Z,44.47
2022-07-25T20:48:15.969Z,44.41
2022-07-25T20:50:43.920Z,44.98
2022-07-25T20:53:12.262Z,44.85
2022-07-25T20:55:40.223Z,45.29
2022-07-25T20:58:08.258Z,45.14
2022-07-25T21:00:37.635Z,45.45
2022-07-25T21:03:08.266Z,45.44
2022-07-25T21:05:37.642Z,45.86
2022-07-25T21:08:06.020Z,46.47
2022-07-25T21:10:33.904Z,46.48
2022-07-25T21:13:02.353Z,46.82
2022-07-25T21:15:30.818Z,47.01
2022-07-25T21:18:00.399Z,47.30
2022-07-25T21:20:28.430Z,47.68
2022-07-25T21:22:56.374Z,47.38
2022-07-25T21:25:24.079Z,47.94
2022-07-25T21:27:51.912Z,47.70
2022-07-25T21:30:19.701Z,47.90
2022-07-25T21:32:47.617Z,48.39
2022-07-25T21:35:18.101Z,48.49
2022-07-25T21:37:45.848Z,48.80
2022-07-25T21:40:14.099Z,49.38
2022-07-25T21:42:42.607Z,49.58
2022-07-25T21:45:11.188Z,49.65
2022-07-25T21:47:38.997Z,50.05
2022-07-25T21:50:27.552Z,50.16
2022-07-25T21:52:57.385Z,50.19
2022-07-25T21:55:25.338Z,50.41
2022-07-25T21:57:53.133Z,50.55
2022-07-25T22:00:21.537Z,50.97
2022-07-25T22:02:49.590Z,50.84
2022-07-25T22:05:19.135Z,51.07
2022-07-25T22:07:48.187Z,51.27
2022-07-25T22:10:19.299Z,51.26
2022-07-25T22:12:47.091Z,51.54
2022-07-25T22:15:15.311Z,51.50
2022-07-25T22:17:48.175Z,51.70
2022-07-25T22:20:18.035Z,51.70
2022-07-25T22:22:46.545Z,51.92
2022-07-25T22:25:14.431Z,51.97
2022-07-25T22:27:43.767Z,51.97
2022-07-25T22:30:18.290Z,51.82
2022-07-25T22:32:47.060Z,52.12
2022-07-25T22:35:15.231Z,52.04
2022-07-25T22:37:43.023Z,52.21
2022-07-25T22:40:11.840Z,52.47
2022-07-25T22:42:39.612Z,52.49
2022-07-25T22:45:09.763Z,52.56
2022-07-25T22:47:37.567Z,52.78
2022-07-25T22:50:06.796Z,52.79
2022-07-25T22:52:35.373Z,52.64
2022-07-25T22:55:03.119Z,52.61
2022-07-25T22:57:36.780Z,52.84
2022-07-25T23:00:09.790Z,53.17
2022-07-25T23:02:37.765Z,53.37
2022-07-25T23:05:06.809Z,53.38
2022-07-25T23:07:35.350Z,53.33
2022-07-25T23:10:03.497Z,53.53
2022-07-25T23:12:31.266Z,53.59
2022-07-25T23:14:59.033Z,53.52
2022-07-25T23:17:28.127Z,53.77
2022-07-25T23:19:57.266Z,53.83
2022-07-25T23:22:28.196Z,53.90
2022-07-25T23:24:56.374Z,54.04
2022-07-25T23:27:25.291Z,54.07
2022-07-25T23:29:53.220Z,53.88
2022-07-25T23:32:21.257Z,54.24
2022-07-25T23:34:50.390Z,54.17
2022-07-25T23:37:18.217Z,54.28
2022-07-25T23:39:45.963Z,54.28
2022-07-25T23:42:13.715Z,54.48
2022-07-25T23:44:42.036Z,54.65
2022-07-25T23:47:12.487Z,54.79
2022-07-25T23:49:41.025Z,55.05
2022-07-25T23:52:10.251Z,55.23
2022-07-25T23:54:40.474Z,55.41
2022-07-25T23:57:08.855Z,55.40
2022-07-25T23:59:37.140Z,55.69
